sensor_id;sensor_type;location;lat;lon;timestamp;P1;durP1;ratioP1;P2;durP2;ratioP2
12760;SDS011;6444;49.742;6.114;2022-12-07T00:02:24;18.23;;;11.10;;
12760;SDS011;6444;49.742;6.114;2022-12-07T00:04:51;15.83;;;10.67;;
12760;SDS011;6444;49.742;6.114;2022-12-07T00:07:17;15.63;;;10.60;;
12760;SDS011;6444;49.742;6.114;2022-12-07T00:09:44;16.43;;;10.77;;
12760;SDS011;6444;49.742;6.114;2022-12-07T00:12:11;15.43;;;10.70;;
12760;SDS011;6444;49.742;6.114;2022-12-07T00:14:38;21.47;;;10.50;;
12760;SDS011;6444;49.742;6.114;2022-12-07T00:17:05;16.73;;;10.50;;
12760;SDS011;6444;49.742;6.114;2022-12-07T00:19:31;16.50;;;10.53;;
12760;SDS011;6444;49.742;6.114;2022-12-07T00:21:58;16.60;;;10.80;;
12760;SDS011;6444;49.742;6.114;2022-12-07T00:24:24;17.43;;;10.33;;
12760;SDS011;6444;49.742;6.114;2022-12-07T00:26:51;15.97;;;10.37;;
12760;SDS011;6444;49.742;6.114;2022-12-07T00:29:19;16.37;;;10.50;;
12760;SDS011;6444;49.742;6.114;2022-12-07T00:31:44;14.60;;;10.27;;
12760;SDS011;6444;49.742;6.114;2022-12-07T00:34:12;14.60;;;9.80;;
12760;SDS011;6444;49.742;6.114;2022-12-07T00:36:38;15.37;;;10.30;;
12760;SDS011;6444;49.742;6.114;2022-12-07T00:39:04;15.27;;;10.50;;
12760;SDS011;6444;49.742;6.114;2022-12-07T00:41:31;15.73;;;10.33;;
12760;SDS011;6444;49.742;6.114;2022-12-07T00:43:57;19.40;;;11.97;;
12760;SDS011;6444;49.742;6.114;2022-12-07T00:46:24;19.00;;;11.53;;
12760;SDS011;6444;49.742;6.114;2022-12-07T00:48:51;18.37;;;11.17;;
12760;SDS011;6444;49.742;6.114;2022-12-07T00:51:19;17.57;;;12.03;;
12760;SDS011;6444;49.742;6.114;2022-12-07T00:53:44;18.30;;;11.97;;
12760;SDS011;6444;49.742;6.114;2022-12-07T00:56:15;19.80;;;12.47;;
12760;SDS011;6444;49.742;6.114;2022-12-07T00:58:41;24.33;;;12.20;;
12760;SDS011;6444;49.742;6.114;2022-12-07T01:01:08;22.13;;;13.53;;
12760;SDS011;6444;49.742;6.114;2022-12-07T01:03:34;19.30;;;11.77;;
12760;SDS011;6444;49.742;6.114;2022-12-07T01:06:00;19.60;;;11.53;;
12760;SDS011;6444;49.742;6.114;2022-12-07T01:08:28;20.83;;;12.53;;
12760;SDS011;6444;49.742;6.114;2022-12-07T01:11:00;20.20;;;11.97;;
12760;SDS011;6444;49.742;6.114;2022-12-07T01:13:26;22.20;;;12.37;;
12760;SDS011;6444;49.742;6.114;2022-12-07T01:15:55;17.27;;;11.37;;
12760;SDS011;6444;49.742;6.114;2022-12-07T01:18:20;19.07;;;12.73;;
12760;SDS011;6444;49.742;6.114;2022-12-07T01:20:56;22.80;;;13.00;;
12760;SDS011;6444;49.742;6.114;2022-12-07T01:23:14;26.85;;;17.55;;
12760;SDS011;6444;49.742;6.114;2022-12-07T01:25:40;23.23;;;14.07;;
12760;SDS011;6444;49.742;6.114;2022-12-07T01:28:07;21.17;;;12.53;;
12760;SDS011;6444;49.742;6.114;2022-12-07T01:30:33;25.97;;;13.43;;
12760;SDS011;6444;49.742;6.114;2022-12-07T01:33:00;24.90;;;13.33;;
12760;SDS011;6444;49.742;6.114;2022-12-07T01:35:27;20.63;;;12.40;;
12760;SDS011;6444;49.742;6.114;2022-12-07T01:37:53;23.13;;;11.90;;
12760;SDS011;6444;49.742;6.114;2022-12-07T01:40:20;35.20;;;19.20;;
12760;SDS011;6444;49.742;6.114;2022-12-07T01:42:47;34.03;;;17.20;;
12760;SDS011;6444;49.742;6.114;2022-12-07T01:48:05;34.60;;;16.23;;
12760;SDS011;6444;49.742;6.114;2022-12-07T01:50:31;31.33;;;15.90;;
12760;SDS011;6444;49.742;6.114;2022-12-07T01:52:58;35.20;;;17.03;;
12760;SDS011;6444;49.742;6.114;2022-12-07T01:55:24;32.03;;;17.07;;
12760;SDS011;6444;49.742;6.114;2022-12-07T01:57:52;31.13;;;15.67;;
12760;SDS011;6444;49.742;6.114;2022-12-07T02:00:18;29.77;;;15.27;;
12760;SDS011;6444;49.742;6.114;2022-12-07T02:03:01;29.17;;;15.60;;
12760;SDS011;6444;49.742;6.114;2022-12-07T02:05:26;34.33;;;16.93;;
12760;SDS011;6444;49.742;6.114;2022-12-07T02:07:53;34.00;;;16.80;;
12760;SDS011;6444;49.742;6.114;2022-12-07T02:10:20;30.77;;;15.97;;
12760;SDS011;6444;49.742;6.114;2022-12-07T02:12:50;32.47;;;15.90;;
12760;SDS011;6444;49.742;6.114;2022-12-07T02:15:15;31.47;;;15.83;;
12760;SDS011;6444;49.742;6.114;2022-12-07T02:17:46;32.30;;;16.50;;
12760;SDS011;6444;49.742;6.114;2022-12-07T02:20:14;30.03;;;15.50;;
12760;SDS011;6444;49.742;6.114;2022-12-07T02:25:32;27.80;;;15.40;;
12760;SDS011;6444;49.742;6.114;2022-12-07T02:28:09;27.40;;;14.93;;
12760;SDS011;6444;49.742;6.114;2022-12-07T02:30:34;28.00;;;14.80;;
12760;SDS011;6444;49.742;6.114;2022-12-07T02:33:08;27.37;;;13.67;;
12760;SDS011;6444;49.742;6.114;2022-12-07T02:38:33;21.80;;;12.30;;
12760;SDS011;6444;49.742;6.114;2022-12-07T02:41:12;19.73;;;11.73;;
12760;SDS011;6444;49.742;6.114;2022-12-07T02:43:41;23.55;;;15.40;;
12760;SDS011;6444;49.742;6.114;2022-12-07T02:46:10;18.57;;;11.83;;
12760;SDS011;6444;49.742;6.114;2022-12-07T02:48:33;18.10;;;10.97;;
12760;SDS011;6444;49.742;6.114;2022-12-07T02:50:59;19.33;;;11.87;;
12760;SDS011;6444;49.742;6.114;2022-12-07T02:53:32;19.40;;;13.68;;
12760;SDS011;6444;49.742;6.114;2022-12-07T02:56:01;20.08;;;14.60;;
12760;SDS011;6444;49.742;6.114;2022-12-07T02:58:34;18.83;;;11.60;;
12760;SDS011;6444;49.742;6.114;2022-12-07T03:01:04;16.73;;;11.47;;
12760;SDS011;6444;49.742;6.114;2022-12-07T03:03:30;19.03;;;11.07;;
12760;SDS011;6444;49.742;6.114;2022-12-07T03:08:47;17.87;;;11.70;;
12760;SDS011;6444;49.742;6.114;2022-12-07T03:11:20;21.63;;;12.10;;
12760;SDS011;6444;49.742;6.114;2022-12-07T03:16:37;21.73;;;11.50;;
12760;SDS011;6444;49.742;6.114;2022-12-07T03:19:10;22.43;;;11.97;;
12760;SDS011;6444;49.742;6.114;2022-12-07T03:21:42;19.07;;;10.60;;
12760;SDS011;6444;49.742;6.114;2022-12-07T03:24:09;19.00;;;11.10;;
12760;SDS011;6444;49.742;6.114;2022-12-07T03:26:36;22.77;;;11.80;;
12760;SDS011;6444;49.742;6.114;2022-12-07T03:29:02;16.53;;;10.77;;
12760;SDS011;6444;49.742;6.114;2022-12-07T03:31:31;17.53;;;10.80;;
12760;SDS011;6444;49.742;6.114;2022-12-07T03:36:39;19.95;;;14.68;;
12760;SDS011;6444;49.742;6.114;2022-12-07T03:41:34;17.40;;;11.23;;
12760;SDS011;6444;49.742;6.114;2022-12-07T03:44:01;17.70;;;10.87;;
12760;SDS011;6444;49.742;6.114;2022-12-07T03:49:22;18.47;;;10.70;;
12760;SDS011;6444;49.742;6.114;2022-12-07T03:51:46;20.47;;;10.20;;
12760;SDS011;6444;49.742;6.114;2022-12-07T03:54:31;17.53;;;11.13;;
12760;SDS011;6444;49.742;6.114;2022-12-07T03:56:57;19.60;;;11.87;;
12760;SDS011;6444;49.742;6.114;2022-12-07T03:59:23;19.87;;;11.50;;
12760;SDS011;6444;49.742;6.114;2022-12-07T04:01:54;20.13;;;11.13;;
12760;SDS011;6444;49.742;6.114;2022-12-07T04:04:20;20.07;;;10.33;;
12760;SDS011;6444;49.742;6.114;2022-12-07T04:06:46;20.33;;;11.37;;
12760;SDS011;6444;49.742;6.114;2022-12-07T04:09:13;21.08;;;15.07;;
12760;SDS011;6444;49.742;6.114;2022-12-07T04:11:39;19.53;;;12.87;;
12760;SDS011;6444;49.742;6.114;2022-12-07T04:14:06;19.87;;;11.00;;
12760;SDS011;6444;49.742;6.114;2022-12-07T04:16:35;19.87;;;10.87;;
12760;SDS011;6444;49.742;6.114;2022-12-07T04:19:03;20.07;;;11.80;;
12760;SDS011;6444;49.742;6.114;2022-12-07T04:21:29;17.83;;;11.40;;
12760;SDS011;6444;49.742;6.114;2022-12-07T04:23:56;20.13;;;12.83;;
12760;SDS011;6444;49.742;6.114;2022-12-07T04:26:23;22.80;;;12.07;;
12760;SDS011;6444;49.742;6.114;2022-12-07T04:28:50;23.23;;;13.60;;
12760;SDS011;6444;49.742;6.114;2022-12-07T04:31:17;20.97;;;12.03;;
12760;SDS011;6444;49.742;6.114;2022-12-07T04:33:43;19.97;;;12.07;;
12760;SDS011;6444;49.742;6.114;2022-12-07T04:36:10;19.13;;;11.70;;
12760;SDS011;6444;49.742;6.114;2022-12-07T04:38:37;23.07;;;12.17;;
12760;SDS011;6444;49.742;6.114;2022-12-07T04:41:07;23.30;;;13.43;;
12760;SDS011;6444;49.742;6.114;2022-12-07T04:43:33;22.37;;;11.83;;
12760;SDS011;6444;49.742;6.114;2022-12-07T04:46:00;17.80;;;11.90;;
12760;SDS011;6444;49.742;6.114;2022-12-07T04:48:27;22.30;;;13.20;;
12760;SDS011;6444;49.742;6.114;2022-12-07T04:50:53;22.37;;;12.70;;
12760;SDS011;6444;49.742;6.114;2022-12-07T04:53:20;22.93;;;12.83;;
12760;SDS011;6444;49.742;6.114;2022-12-07T04:55:47;21.43;;;12.40;;
12760;SDS011;6444;49.742;6.114;2022-12-07T04:58:14;26.27;;;13.57;;
12760;SDS011;6444;49.742;6.114;2022-12-07T05:00:40;21.00;;;13.10;;
12760;SDS011;6444;49.742;6.114;2022-12-07T05:03:07;22.53;;;12.63;;
12760;SDS011;6444;49.742;6.114;2022-12-07T05:05:34;24.53;;;13.40;;
12760;SDS011;6444;49.742;6.114;2022-12-07T05:08:01;23.37;;;12.80;;
12760;SDS011;6444;49.742;6.114;2022-12-07T05:10:28;23.73;;;13.50;;
12760;SDS011;6444;49.742;6.114;2022-12-07T05:12:54;23.70;;;12.50;;
12760;SDS011;6444;49.742;6.114;2022-12-07T05:15:22;22.47;;;12.07;;
12760;SDS011;6444;49.742;6.114;2022-12-07T05:17:48;22.83;;;12.43;;
12760;SDS011;6444;49.742;6.114;2022-12-07T05:20:15;24.30;;;13.07;;
12760;SDS011;6444;49.742;6.114;2022-12-07T05:22:42;23.47;;;12.83;;
12760;SDS011;6444;49.742;6.114;2022-12-07T05:25:09;25.17;;;13.17;;
12760;SDS011;6444;49.742;6.114;2022-12-07T05:27:36;25.27;;;13.37;;
12760;SDS011;6444;49.742;6.114;2022-12-07T05:30:02;23.20;;;12.90;;
12760;SDS011;6444;49.742;6.114;2022-12-07T05:32:29;26.00;;;13.83;;
12760;SDS011;6444;49.742;6.114;2022-12-07T05:34:56;27.90;;;13.77;;
12760;SDS011;6444;49.742;6.114;2022-12-07T05:37:23;25.60;;;14.13;;
12760;SDS011;6444;49.742;6.114;2022-12-07T05:39:50;25.73;;;13.53;;
12760;SDS011;6444;49.742;6.114;2022-12-07T05:42:16;25.30;;;13.67;;
12760;SDS011;6444;49.742;6.114;2022-12-07T05:44:44;24.17;;;12.60;;
12760;SDS011;6444;49.742;6.114;2022-12-07T05:47:11;26.00;;;13.93;;
12760;SDS011;6444;49.742;6.114;2022-12-07T05:49:37;30.03;;;14.13;;
12760;SDS011;6444;49.742;6.114;2022-12-07T05:52:03;23.60;;;13.17;;
12760;SDS011;6444;49.742;6.114;2022-12-07T05:54:30;29.73;;;16.70;;
12760;SDS011;6444;49.742;6.114;2022-12-07T05:56:57;26.23;;;14.13;;
12760;SDS011;6444;49.742;6.114;2022-12-07T05:59:23;26.10;;;13.80;;
12760;SDS011;6444;49.742;6.114;2022-12-07T06:01:51;25.00;;;12.97;;
12760;SDS011;6444;49.742;6.114;2022-12-07T06:04:20;30.98;;;19.40;;
12760;SDS011;6444;49.742;6.114;2022-12-07T06:06:46;31.83;;;19.67;;
12760;SDS011;6444;49.742;6.114;2022-12-07T06:09:13;26.53;;;14.90;;
12760;SDS011;6444;49.742;6.114;2022-12-07T06:11:39;33.57;;;16.80;;
12760;SDS011;6444;49.742;6.114;2022-12-07T06:14:24;31.80;;;22.25;;
12760;SDS011;6444;49.742;6.114;2022-12-07T06:16:51;28.20;;;16.67;;
12760;SDS011;6444;49.742;6.114;2022-12-07T06:19:17;25.13;;;14.70;;
12760;SDS011;6444;49.742;6.114;2022-12-07T06:21:45;27.03;;;14.77;;
12760;SDS011;6444;49.742;6.114;2022-12-07T06:24:12;25.03;;;13.80;;
12760;SDS011;6444;49.742;6.114;2022-12-07T06:26:38;22.27;;;12.83;;
12760;SDS011;6444;49.742;6.114;2022-12-07T06:29:05;25.87;;;13.17;;
12760;SDS011;6444;49.742;6.114;2022-12-07T06:31:31;30.60;;;19.25;;
12760;SDS011;6444;49.742;6.114;2022-12-07T06:33:58;25.50;;;15.03;;
12760;SDS011;6444;49.742;6.114;2022-12-07T06:36:25;24.93;;;13.47;;
12760;SDS011;6444;49.742;6.114;2022-12-07T06:38:51;28.77;;;17.65;;
12760;SDS011;6444;49.742;6.114;2022-12-07T06:41:18;29.97;;;18.27;;
12760;SDS011;6444;49.742;6.114;2022-12-07T06:43:44;26.03;;;13.43;;
12760;SDS011;6444;49.742;6.114;2022-12-07T06:46:11;27.33;;;13.47;;
12760;SDS011;6444;49.742;6.114;2022-12-07T06:48:38;22.27;;;13.03;;
12760;SDS011;6444;49.742;6.114;2022-12-07T06:51:05;22.73;;;12.80;;
12760;SDS011;6444;49.742;6.114;2022-12-07T06:53:32;22.40;;;11.90;;
12760;SDS011;6444;49.742;6.114;2022-12-07T06:55:58;22.83;;;12.33;;
12760;SDS011;6444;49.742;6.114;2022-12-07T06:58:25;20.80;;;11.90;;
12760;SDS011;6444;49.742;6.114;2022-12-07T07:00:52;22.53;;;12.43;;
12760;SDS011;6444;49.742;6.114;2022-12-07T07:03:19;27.77;;;12.80;;
12760;SDS011;6444;49.742;6.114;2022-12-07T07:05:46;22.67;;;12.87;;
12760;SDS011;6444;49.742;6.114;2022-12-07T07:08:12;23.33;;;12.93;;
12760;SDS011;6444;49.742;6.114;2022-12-07T07:10:39;26.70;;;14.00;;
12760;SDS011;6444;49.742;6.114;2022-12-07T07:13:06;25.27;;;12.33;;
12760;SDS011;6444;49.742;6.114;2022-12-07T07:15:32;26.37;;;12.90;;
12760;SDS011;6444;49.742;6.114;2022-12-07T07:17:59;30.80;;;15.43;;
12760;SDS011;6444;49.742;6.114;2022-12-07T07:20:25;36.92;;;21.00;;
12760;SDS011;6444;49.742;6.114;2022-12-07T07:22:55;27.90;;;15.43;;
12760;SDS011;6444;49.742;6.114;2022-12-07T07:25:21;29.60;;;15.77;;
12760;SDS011;6444;49.742;6.114;2022-12-07T07:27:49;32.63;;;17.00;;
12760;SDS011;6444;49.742;6.114;2022-12-07T07:30:15;26.03;;;14.63;;
12760;SDS011;6444;49.742;6.114;2022-12-07T07:32:42;29.20;;;14.30;;
12760;SDS011;6444;49.742;6.114;2022-12-07T07:35:09;23.00;;;13.00;;
12760;SDS011;6444;49.742;6.114;2022-12-07T07:37:35;21.83;;;13.00;;
12760;SDS011;6444;49.742;6.114;2022-12-07T07:40:02;18.97;;;11.40;;
12760;SDS011;6444;49.742;6.114;2022-12-07T07:42:28;22.70;;;12.10;;
12760;SDS011;6444;49.742;6.114;2022-12-07T07:44:55;21.53;;;12.37;;
12760;SDS011;6444;49.742;6.114;2022-12-07T07:47:22;22.75;;;15.27;;
12760;SDS011;6444;49.742;6.114;2022-12-07T07:49:48;22.93;;;12.20;;
12760;SDS011;6444;49.742;6.114;2022-12-07T07:52:15;18.07;;;11.13;;
12760;SDS011;6444;49.742;6.114;2022-12-07T07:54:42;19.57;;;11.70;;
12760;SDS011;6444;49.742;6.114;2022-12-07T07:57:08;17.47;;;10.20;;
12760;SDS011;6444;49.742;6.114;2022-12-07T07:59:36;17.43;;;10.43;;
12760;SDS011;6444;49.742;6.114;2022-12-07T08:02:02;19.83;;;11.67;;
12760;SDS011;6444;49.742;6.114;2022-12-07T08:04:29;22.03;;;10.40;;
12760;SDS011;6444;49.742;6.114;2022-12-07T08:06:56;19.53;;;10.43;;
12760;SDS011;6444;49.742;6.114;2022-12-07T08:09:23;18.40;;;10.67;;
12760;SDS011;6444;49.742;6.114;2022-12-07T08:11:49;17.43;;;10.93;;
12760;SDS011;6444;49.742;6.114;2022-12-07T08:14:16;18.27;;;10.53;;
12760;SDS011;6444;49.742;6.114;2022-12-07T08:16:43;17.93;;;10.50;;
12760;SDS011;6444;49.742;6.114;2022-12-07T08:19:10;19.17;;;10.50;;
12760;SDS011;6444;49.742;6.114;2022-12-07T08:21:37;19.77;;;11.07;;
12760;SDS011;6444;49.742;6.114;2022-12-07T08:24:03;18.93;;;10.63;;
12760;SDS011;6444;49.742;6.114;2022-12-07T08:26:30;22.97;;;11.73;;
12760;SDS011;6444;49.742;6.114;2022-12-07T08:28:57;20.10;;;10.77;;
12760;SDS011;6444;49.742;6.114;2022-12-07T08:31:24;18.93;;;10.07;;
12760;SDS011;6444;49.742;6.114;2022-12-07T08:33:51;19.07;;;10.63;;
12760;SDS011;6444;49.742;6.114;2022-12-07T08:36:17;20.30;;;10.33;;
12760;SDS011;6444;49.742;6.114;2022-12-07T08:38:45;15.33;;;9.47;;
12760;SDS011;6444;49.742;6.114;2022-12-07T08:41:11;16.33;;;10.03;;
12760;SDS011;6444;49.742;6.114;2022-12-07T08:43:38;16.43;;;9.33;;
12760;SDS011;6444;49.742;6.114;2022-12-07T08:46:22;18.83;;;9.57;;
12760;SDS011;6444;49.742;6.114;2022-12-07T08:48:48;16.50;;;9.30;;
12760;SDS011;6444;49.742;6.114;2022-12-07T08:51:11;16.00;;;9.50;;
12760;SDS011;6444;49.742;6.114;2022-12-07T08:53:37;15.63;;;9.00;;
12760;SDS011;6444;49.742;6.114;2022-12-07T08:56:04;17.27;;;10.85;;
12760;SDS011;6444;49.742;6.114;2022-12-07T08:58:31;14.93;;;8.50;;
12760;SDS011;6444;49.742;6.114;2022-12-07T09:00:57;13.07;;;7.53;;
12760;SDS011;6444;49.742;6.114;2022-12-07T09:03:24;13.63;;;7.10;;
12760;SDS011;6444;49.742;6.114;2022-12-07T09:05:52;10.43;;;7.00;;
12760;SDS011;6444;49.742;6.114;2022-12-07T09:08:18;9.00;;;6.33;;
12760;SDS011;6444;49.742;6.114;2022-12-07T09:10:45;6.72;;;5.35;;
12760;SDS011;6444;49.742;6.114;2022-12-07T09:13:11;8.38;;;6.10;;
12760;SDS011;6444;49.742;6.114;2022-12-07T09:15:38;9.18;;;5.68;;
12760;SDS011;6444;49.742;6.114;2022-12-07T09:18:04;6.82;;;5.45;;
12760;SDS011;6444;49.742;6.114;2022-12-07T09:20:31;9.65;;;5.22;;
12760;SDS011;6444;49.742;6.114;2022-12-07T09:22:58;7.65;;;5.57;;
12760;SDS011;6444;49.742;6.114;2022-12-07T09:25:24;7.68;;;5.47;;
12760;SDS011;6444;49.742;6.114;2022-12-07T09:27:57;7.00;;;5.18;;
12760;SDS011;6444;49.742;6.114;2022-12-07T09:30:24;6.37;;;5.03;;
12760;SDS011;6444;49.742;6.114;2022-12-07T09:32:52;6.28;;;4.80;;
12760;SDS011;6444;49.742;6.114;2022-12-07T09:35:17;8.15;;;6.20;;
12760;SDS011;6444;49.742;6.114;2022-12-07T09:37:43;11.32;;;5.53;;
12760;SDS011;6444;49.742;6.114;2022-12-07T09:40:10;7.35;;;4.85;;
12760;SDS011;6444;49.742;6.114;2022-12-07T09:42:38;8.80;;;6.20;;
12760;SDS011;6444;49.742;6.114;2022-12-07T09:45:07;8.88;;;5.47;;
12760;SDS011;6444;49.742;6.114;2022-12-07T09:47:33;8.85;;;5.28;;
12760;SDS011;6444;49.742;6.114;2022-12-07T09:50:06;10.23;;;6.50;;
12760;SDS011;6444;49.742;6.114;2022-12-07T09:52:31;8.20;;;5.20;;
12760;SDS011;6444;49.742;6.114;2022-12-07T09:54:58;10.77;;;5.30;;
12760;SDS011;6444;49.742;6.114;2022-12-07T09:57:28;6.95;;;5.05;;
12760;SDS011;6444;49.742;6.114;2022-12-07T09:59:56;8.75;;;5.00;;
12760;SDS011;6444;49.742;6.114;2022-12-07T10:02:26;11.82;;;5.07;;
12760;SDS011;6444;49.742;6.114;2022-12-07T10:04:51;7.32;;;5.30;;
12760;SDS011;6444;49.742;6.114;2022-12-07T10:07:17;9.65;;;5.12;;
12760;SDS011;6444;49.742;6.114;2022-12-07T10:09:44;8.10;;;5.43;;
12760;SDS011;6444;49.742;6.114;2022-12-07T10:12:11;12.18;;;5.10;;
12760;SDS011;6444;49.742;6.114;2022-12-07T10:14:38;8.05;;;4.95;;
12760;SDS011;6444;49.742;6.114;2022-12-07T10:20:41;10.95;;;5.37;;
12760;SDS011;6444;49.742;6.114;2022-12-07T10:22:53;8.77;;;4.80;;
12760;SDS011;6444;49.742;6.114;2022-12-07T10:25:09;8.23;;;5.97;;
12760;SDS011;6444;49.742;6.114;2022-12-07T10:27:35;9.65;;;5.28;;
12760;SDS011;6444;49.742;6.114;2022-12-07T10:30:02;10.48;;;6.43;;
12760;SDS011;6444;49.742;6.114;2022-12-07T10:32:39;8.85;;;5.53;;
12760;SDS011;6444;49.742;6.114;2022-12-07T10:37:53;7.53;;;5.30;;
12760;SDS011;6444;49.742;6.114;2022-12-07T10:40:30;8.57;;;4.73;;
12760;SDS011;6444;49.742;6.114;2022-12-07T10:43:01;6.28;;;4.50;;
12760;SDS011;6444;49.742;6.114;2022-12-07T10:48:17;8.02;;;4.50;;
12760;SDS011;6444;49.742;6.114;2022-12-07T10:56:16;7.05;;;4.43;;
12760;SDS011;6444;49.742;6.114;2022-12-07T11:01:52;8.75;;;5.03;;
12760;SDS011;6444;49.742;6.114;2022-12-07T11:04:37;6.28;;;4.45;;
12760;SDS011;6444;49.742;6.114;2022-12-07T11:09:50;7.43;;;4.90;;
12760;SDS011;6444;49.742;6.114;2022-12-07T11:12:29;9.95;;;7.05;;
12760;SDS011;6444;49.742;6.114;2022-12-07T11:18:03;7.68;;;5.60;;
12760;SDS011;6444;49.742;6.114;2022-12-07T11:28:39;7.62;;;4.55;;
12760;SDS011;6444;49.742;6.114;2022-12-07T11:31:25;6.72;;;4.82;;
12760;SDS011;6444;49.742;6.114;2022-12-07T11:34:00;6.80;;;5.32;;
12760;SDS011;6444;49.742;6.114;2022-12-07T11:36:31;10.00;;;7.13;;
12760;SDS011;6444;49.742;6.114;2022-12-07T11:39:08;7.75;;;6.30;;
12760;SDS011;6444;49.742;6.114;2022-12-07T11:41:51;6.32;;;4.40;;
12760;SDS011;6444;49.742;6.114;2022-12-07T11:44:27;7.03;;;4.22;;
12760;SDS011;6444;49.742;6.114;2022-12-07T11:47:17;5.40;;;3.92;;
12760;SDS011;6444;49.742;6.114;2022-12-07T11:49:45;5.68;;;3.85;;
12760;SDS011;6444;49.742;6.114;2022-12-07T11:55:18;4.53;;;3.17;;
12760;SDS011;6444;49.742;6.114;2022-12-07T11:58:46;5.57;;;3.30;;
12760;SDS011;6444;49.742;6.114;2022-12-07T12:00:26;6.43;;;4.10;;
12760;SDS011;6444;49.742;6.114;2022-12-07T12:02:55;5.85;;;4.10;;
12760;SDS011;6444;49.742;6.114;2022-12-07T12:05:22;7.83;;;4.10;;
12760;SDS011;6444;49.742;6.114;2022-12-07T12:07:51;5.22;;;3.20;;
12760;SDS011;6444;49.742;6.114;2022-12-07T12:10:17;4.47;;;3.30;;
12760;SDS011;6444;49.742;6.114;2022-12-07T12:12:58;6.18;;;3.72;;
12760;SDS011;6444;49.742;6.114;2022-12-07T12:15:23;4.07;;;3.20;;
12760;SDS011;6444;49.742;6.114;2022-12-07T12:18:06;3.50;;;2.50;;
12760;SDS011;6444;49.742;6.114;2022-12-07T12:20:43;3.13;;;2.63;;
12760;SDS011;6444;49.742;6.114;2022-12-07T12:23:18;5.50;;;3.23;;
12760;SDS011;6444;49.742;6.114;2022-12-07T12:33:44;5.93;;;2.37;;
12760;SDS011;6444;49.742;6.114;2022-12-07T12:46:50;3.92;;;2.70;;
12760;SDS011;6444;49.742;6.114;2022-12-07T12:51:56;2.55;;;2.25;;
12760;SDS011;6444;49.742;6.114;2022-12-07T12:56:52;5.65;;;2.90;;
12760;SDS011;6444;49.742;6.114;2022-12-07T13:01:48;4.28;;;3.00;;
12760;SDS011;6444;49.742;6.114;2022-12-07T13:04:17;3.40;;;2.45;;
12760;SDS011;6444;49.742;6.114;2022-12-07T13:06:44;5.37;;;2.80;;
12760;SDS011;6444;49.742;6.114;2022-12-07T13:09:24;4.57;;;2.80;;
12760;SDS011;6444;49.742;6.114;2022-12-07T13:11:56;4.10;;;2.63;;
12760;SDS011;6444;49.742;6.114;2022-12-07T13:14:44;4.27;;;3.00;;
12760;SDS011;6444;49.742;6.114;2022-12-07T13:17:12;4.73;;;2.80;;
12760;SDS011;6444;49.742;6.114;2022-12-07T13:24:57;5.78;;;2.70;;
12760;SDS011;6444;49.742;6.114;2022-12-07T13:27:26;6.85;;;3.08;;
12760;SDS011;6444;49.742;6.114;2022-12-07T13:29:55;4.40;;;2.95;;
12760;SDS011;6444;49.742;6.114;2022-12-07T13:32:24;6.53;;;2.80;;
12760;SDS011;6444;49.742;6.114;2022-12-07T13:34:49;5.00;;;2.55;;
12760;SDS011;6444;49.742;6.114;2022-12-07T13:37:29;4.20;;;3.00;;
12760;SDS011;6444;49.742;6.114;2022-12-07T13:39:56;3.25;;;2.25;;
12760;SDS011;6444;49.742;6.114;2022-12-07T13:44:52;3.65;;;2.55;;
12760;SDS011;6444;49.742;6.114;2022-12-07T13:47:32;5.53;;;3.05;;
12760;SDS011;6444;49.742;6.114;2022-12-07T13:49:58;4.80;;;2.47;;
12760;SDS011;6444;49.742;6.114;2022-12-07T13:52:26;5.07;;;2.60;;
12760;SDS011;6444;49.742;6.114;2022-12-07T13:55:05;3.93;;;2.43;;
12760;SDS011;6444;49.742;6.114;2022-12-07T13:57:28;5.43;;;2.83;;
12760;SDS011;6444;49.742;6.114;2022-12-07T13:59:54;5.55;;;3.00;;
12760;SDS011;6444;49.742;6.114;2022-12-07T14:04:48;4.07;;;2.40;;
12760;SDS011;6444;49.742;6.114;2022-12-07T14:07:26;3.90;;;2.20;;
12760;SDS011;6444;49.742;6.114;2022-12-07T14:10:00;4.72;;;2.58;;
12760;SDS011;6444;49.742;6.114;2022-12-07T14:12:25;6.25;;;2.17;;
12760;SDS011;6444;49.742;6.114;2022-12-07T14:14:52;2.62;;;2.30;;
12760;SDS011;6444;49.742;6.114;2022-12-07T14:17:19;4.13;;;2.53;;
12760;SDS011;6444;49.742;6.114;2022-12-07T14:19:47;3.80;;;2.28;;
12760;SDS011;6444;49.742;6.114;2022-12-07T14:24:51;6.03;;;2.30;;
12760;SDS011;6444;49.742;6.114;2022-12-07T14:27:21;11.57;;;3.10;;
12760;SDS011;6444;49.742;6.114;2022-12-07T14:29:47;3.37;;;2.73;;
12760;SDS011;6444;49.742;6.114;2022-12-07T14:32:20;4.80;;;2.63;;
12760;SDS011;6444;49.742;6.114;2022-12-07T14:34:56;5.13;;;3.13;;
12760;SDS011;6444;49.742;6.114;2022-12-07T14:37:21;4.80;;;2.80;;
12760;SDS011;6444;49.742;6.114;2022-12-07T14:39:48;5.33;;;2.90;;
12760;SDS011;6444;49.742;6.114;2022-12-07T14:42:15;6.23;;;2.63;;
12760;SDS011;6444;49.742;6.114;2022-12-07T14:44:41;5.70;;;3.55;;
12760;SDS011;6444;49.742;6.114;2022-12-07T14:47:11;7.32;;;2.75;;
12760;SDS011;6444;49.742;6.114;2022-12-07T14:49:37;3.93;;;3.10;;
12760;SDS011;6444;49.742;6.114;2022-12-07T14:52:04;4.50;;;3.20;;
12760;SDS011;6444;49.742;6.114;2022-12-07T14:54:31;5.07;;;3.37;;
12760;SDS011;6444;49.742;6.114;2022-12-07T14:56:57;5.33;;;2.97;;
12760;SDS011;6444;49.742;6.114;2022-12-07T14:59:24;8.57;;;4.33;;
12760;SDS011;6444;49.742;6.114;2022-12-07T15:01:51;13.07;;;5.77;;
12760;SDS011;6444;49.742;6.114;2022-12-07T15:04:18;13.60;;;7.07;;
12760;SDS011;6444;49.742;6.114;2022-12-07T15:06:54;11.00;;;4.77;;
12760;SDS011;6444;49.742;6.114;2022-12-07T15:09:29;8.97;;;4.80;;
12760;SDS011;6444;49.742;6.114;2022-12-07T15:11:55;10.20;;;4.33;;
12760;SDS011;6444;49.742;6.114;2022-12-07T15:14:22;8.67;;;4.13;;
12760;SDS011;6444;49.742;6.114;2022-12-07T15:16:49;5.03;;;3.53;;
12760;SDS011;6444;49.742;6.114;2022-12-07T15:19:20;5.93;;;3.57;;
12760;SDS011;6444;49.742;6.114;2022-12-07T15:21:46;6.73;;;4.03;;
12760;SDS011;6444;49.742;6.114;2022-12-07T15:24:12;7.27;;;4.80;;
12760;SDS011;6444;49.742;6.114;2022-12-07T15:26:39;8.90;;;4.33;;
12760;SDS011;6444;49.742;6.114;2022-12-07T15:29:06;8.93;;;5.15;;
12760;SDS011;6444;49.742;6.114;2022-12-07T15:31:32;6.03;;;3.87;;
12760;SDS011;6444;49.742;6.114;2022-12-07T15:33:59;11.77;;;4.40;;
12760;SDS011;6444;49.742;6.114;2022-12-07T15:36:27;8.57;;;4.90;;
12760;SDS011;6444;49.742;6.114;2022-12-07T15:38:53;7.23;;;4.17;;
12760;SDS011;6444;49.742;6.114;2022-12-07T15:41:19;6.47;;;3.80;;
12760;SDS011;6444;49.742;6.114;2022-12-07T15:43:46;5.73;;;3.53;;
12760;SDS011;6444;49.742;6.114;2022-12-07T15:46:38;7.77;;;2.90;;
12760;SDS011;6444;49.742;6.114;2022-12-07T15:49:01;3.87;;;2.73;;
12760;SDS011;6444;49.742;6.114;2022-12-07T15:51:27;6.77;;;3.30;;
12760;SDS011;6444;49.742;6.114;2022-12-07T15:53:55;6.30;;;3.50;;
12760;SDS011;6444;49.742;6.114;2022-12-07T15:56:21;4.03;;;3.07;;
12760;SDS011;6444;49.742;6.114;2022-12-07T15:58:48;7.73;;;2.77;;
12760;SDS011;6444;49.742;6.114;2022-12-07T16:01:17;5.50;;;3.80;;
12760;SDS011;6444;49.742;6.114;2022-12-07T16:03:42;6.20;;;3.70;;
12760;SDS011;6444;49.742;6.114;2022-12-07T16:06:09;6.70;;;3.50;;
12760;SDS011;6444;49.742;6.114;2022-12-07T16:08:35;5.80;;;3.00;;
12760;SDS011;6444;49.742;6.114;2022-12-07T16:11:06;7.60;;;3.10;;
12760;SDS011;6444;49.742;6.114;2022-12-07T16:13:33;3.23;;;2.50;;
12760;SDS011;6444;49.742;6.114;2022-12-07T16:16:21;6.93;;;3.07;;
12760;SDS011;6444;49.742;6.114;2022-12-07T16:18:31;5.63;;;2.90;;
12760;SDS011;6444;49.742;6.114;2022-12-07T16:20:58;6.90;;;3.17;;
12760;SDS011;6444;49.742;6.114;2022-12-07T16:23:25;9.20;;;4.37;;
12760;SDS011;6444;49.742;6.114;2022-12-07T16:25:52;8.00;;;5.43;;
12760;SDS011;6444;49.742;6.114;2022-12-07T16:28:19;20.33;;;10.97;;